Terminal Aerodrome Forecast
Issued by NWS Sterling, VA

Current Version | Previous Version | Graphics & Text | Print | Product List | Glossary On
Versions: 1 2 3 4 5 6 7 8 9 10 11 12 13 14 15 16 17 18 19 20
000
FTUS41 KLWX 230540
TAFMRB
TAF
KMRB 230540Z 2306/2406 VRB03KT P6SM BKN050
     FM230900 11004KT P6SM FEW060 SCT250
     FM231400 14012G18KT P6SM FEW060 SCT250
     FM232000 14012KT P6SM BKN050=

USA.gov is the U.S. government's official web portal to all federal, state and local government web resources and services.